Alpine, Virginia
Current Conditions -  °F | °C
As of 9:15 AM on Saturday 20 Dec 2014 (Local Time) from K8W2 Reporting Station
Clear Clear  
Wind Chill: -4°   Ceiling: Unl
Heat Index: -4°   Visibility: 10mi
Dew Point: -5°   Wind: 0mph
Humidity: 88%   Direction: NA
Pressure: 30.28"   Gusts: NA
Location:  38.6726°N, 78.6691°W
Report Text: K8W2 201415Z AUTO 00000KT 10SM CLR M04/M05 A3028 RMK AO1 T10361054
Loading
Personal Weather Stations






























Interactive Weather Map New forecast layout! Learn more

10-Day Weather Forecast

Advertisements
Track Severe Weather on mobile